createdAt,value
2022-12-31T00:00:24.366Z,99.000000
2022-12-31T00:05:26.430Z,99.000000
2022-12-31T00:10:29.807Z,99.000000
2022-12-31T00:15:32.983Z,99.000000
2022-12-31T00:20:35.932Z,99.000000
2022-12-31T00:25:18.861Z,99.000000
2022-12-31T00:30:21.897Z,99.000000
2022-12-31T00:35:25.675Z,99.000000
2022-12-31T00:40:28.737Z,99.000000
2022-12-31T00:45:31.744Z,99.000000
2022-12-31T00:50:34.923Z,99.000000
2022-12-31T00:55:18.331Z,99.000000
2022-12-31T01:00:19.844Z,99.000000
2022-12-31T01:05:22.335Z,99.000000
2022-12-31T01:10:25.447Z,99.000000
2022-12-31T01:15:28.528Z,99.000000
2022-12-31T01:20:31.576Z,99.000000
2022-12-31T01:25:34.039Z,99.000000
2022-12-31T01:30:17.218Z,99.000000
2022-12-31T01:35:19.215Z,99.000000
2022-12-31T01:40:22.134Z,99.000000
2022-12-31T01:45:26.665Z,99.000000
2022-12-31T01:50:28.688Z,99.000000
2022-12-31T01:55:32.297Z,99.000000
2022-12-31T02:00:16.566Z,99.000000
2022-12-31T02:05:19.587Z,99.000000
2022-12-31T02:10:22.345Z,99.000000
2022-12-31T02:15:27.162Z,99.000000
2022-12-31T02:20:30.075Z,99.000000
2022-12-31T02:25:33.875Z,99.000000
2022-12-31T02:30:36.025Z,99.000000
2022-12-31T02:35:18.925Z,99.000000
2022-12-31T02:40:21.699Z,99.000000
2022-12-31T02:45:24.924Z,99.000000
2022-12-31T02:50:28.693Z,99.000000
2022-12-31T02:55:30.137Z,99.000000
2022-12-31T03:00:26.739Z,99.000000
2022-12-31T03:05:16.369Z,99.000000
2022-12-31T03:10:19.624Z,99.000000
2022-12-31T03:15:23.422Z,99.000000
2022-12-31T03:20:26.013Z,99.000000
2022-12-31T03:25:28.393Z,99.000000
2022-12-31T03:30:31.996Z,99.000000
2022-12-31T03:35:37.198Z,99.000000
2022-12-31T03:40:19.077Z,99.000000
2022-12-31T03:45:22.143Z,99.000000
2022-12-31T03:50:25.764Z,99.000000
2022-12-31T03:55:28.896Z,99.000000
2022-12-31T04:00:31.841Z,99.000000
2022-12-31T04:05:34.666Z,99.000000
2022-12-31T04:10:17.409Z,99.000000
2022-12-31T04:15:20.114Z,99.000000
2022-12-31T04:20:24.371Z,99.000000
2022-12-31T04:25:26.853Z,99.000000
2022-12-31T04:30:30.238Z,99.000000
2022-12-31T04:35:32.883Z,99.000000
2022-12-31T04:40:16.172Z,99.000000
2022-12-31T04:45:19.831Z,99.000000
2022-12-31T04:50:22.890Z,99.000000
2022-12-31T04:55:25.680Z,99.000000
2022-12-31T05:00:29.684Z,99.000000
2022-12-31T05:05:31.944Z,99.000000
2022-12-31T05:10:35.851Z,99.000000
2022-12-31T05:15:17.975Z,99.000000
2022-12-31T05:20:21.046Z,99.000000
2022-12-31T05:25:24.855Z,99.000000
2022-12-31T05:30:27.415Z,99.000000
2022-12-31T05:35:30.619Z,99.000000
2022-12-31T05:40:33.614Z,99.000000
2022-12-31T05:45:16.822Z,99.000000
2022-12-31T05:50:20.016Z,99.000000
2022-12-31T05:55:22.657Z,99.000000
2022-12-31T06:00:25.274Z,99.000000
2022-12-31T06:05:27.798Z,99.000000
2022-12-31T06:10:33.268Z,99.000000
2022-12-31T06:15:36.182Z,99.000000
2022-12-31T06:20:18.309Z,99.000000
2022-12-31T06:25:21.867Z,99.000000
2022-12-31T06:30:25.170Z,99.000000
2022-12-31T06:35:28.115Z,99.000000
2022-12-31T06:40:31.526Z,99.000000
2022-12-31T06:45:34.676Z,99.000000
2022-12-31T06:50:19.773Z,99.000000
2022-12-31T06:55:22.954Z,99.000000
2022-12-31T07:00:27.056Z,99.000000
2022-12-31T07:05:31.635Z,99.000000
2022-12-31T07:10:34.778Z,99.000000
2022-12-31T07:15:19.400Z,99.000000
2022-12-31T07:20:31.292Z,99.000000
2022-12-31T07:25:31.045Z,99.000000
2022-12-31T07:30:26.628Z,99.000000
2022-12-31T07:35:35.255Z,99.000000
2022-12-31T07:40:35.807Z,99.000000
2022-12-31T07:45:18.599Z,99.000000
2022-12-31T07:50:22.933Z,99.000000
2022-12-31T07:55:26.230Z,99.000000
2022-12-31T08:00:29.823Z,99.000000
2022-12-31T08:05:31.776Z,99.000000
2022-12-31T08:10:34.977Z,99.000000
2022-12-31T08:15:17.985Z,99.000000
2022-12-31T08:20:21.428Z,99.000000
2022-12-31T08:25:24.679Z,99.000000
2022-12-31T08:30:27.761Z,99.000000
2022-12-31T08:35:30.943Z,99.000000
2022-12-31T08:40:34.432Z,99.000000
2022-12-31T08:45:16.446Z,99.000000
2022-12-31T08:50:19.615Z,99.000000
2022-12-31T08:55:22.233Z,99.000000
2022-12-31T09:00:25.148Z,99.000000
2022-12-31T09:05:30.753Z,99.000000
2022-12-31T09:10:32.388Z,99.000000
2022-12-31T09:15:36.523Z,99.000000
2022-12-31T09:20:18.088Z,99.000000
2022-12-31T09:25:21.182Z,99.000000
2022-12-31T09:30:23.882Z,99.000000
2022-12-31T09:35:26.737Z,99.000000
2022-12-31T09:40:29.165Z,99.000000
2022-12-31T09:45:32.487Z,98.600000
2022-12-31T09:50:35.965Z,98.000000
2022-12-31T09:55:19.680Z,97.933333
2022-12-31T10:00:21.696Z,97.000000
2022-12-31T10:05:24.969Z,96.285714
2022-12-31T10:10:27.830Z,95.600000
2022-12-31T10:15:30.379Z,95.000000
2022-12-31T10:20:33.439Z,94.400000
2022-12-31T10:25:16.726Z,94.000000
2022-12-31T10:30:18.516Z,93.200000
2022-12-31T10:35:21.249Z,92.000000
2022-12-31T10:40:24.649Z,91.000000
2022-12-31T10:45:28.207Z,90.533333
2022-12-31T10:50:31.488Z,90.000000
2022-12-31T10:55:34.475Z,90.000000
2022-12-31T11:00:17.641Z,89.000000
2022-12-31T11:05:22.580Z,89.000000
2022-12-31T11:10:24.741Z,89.857143
2022-12-31T11:15:28.696Z,90.000000
2022-12-31T11:20:31.982Z,88.600000
2022-12-31T11:25:34.539Z,87.666667
2022-12-31T11:30:17.501Z,87.000000
2022-12-31T11:35:22.294Z,87.000000
2022-12-31T11:40:25.677Z,87.066667
2022-12-31T11:45:28.843Z,87.000000
2022-12-31T11:50:32.656Z,87.000000
2022-12-31T11:55:17.016Z,87.400000
2022-12-31T12:00:22.869Z,88.466667
2022-12-31T12:05:25.247Z,90.500000
2022-12-31T12:10:35.665Z,91.000000
2022-12-31T12:15:31.649Z,91.000000
2022-12-31T12:20:35.231Z,91.000000
2022-12-31T12:25:20.277Z,91.333333
2022-12-31T12:30:23.772Z,91.285714
2022-12-31T12:35:29.597Z,91.000000
2022-12-31T12:40:34.171Z,91.733333
2022-12-31T12:45:34.959Z,92.933333
2022-12-31T12:50:18.785Z,93.800000
2022-12-31T12:55:21.576Z,95.000000
2022-12-31T13:00:25.529Z,95.857143
2022-12-31T13:05:28.689Z,96.666667
2022-12-31T13:10:32.093Z,96.400000
2022-12-31T13:15:35.070Z,96.000000
2022-12-31T13:20:17.904Z,96.000000
2022-12-31T13:25:21.629Z,96.000000
2022-12-31T13:30:24.818Z,96.000000
2022-12-31T13:35:28.096Z,96.600000
2022-12-31T13:40:30.532Z,97.000000
2022-12-31T13:45:33.162Z,97.000000
2022-12-31T13:50:36.069Z,97.466667
2022-12-31T13:55:18.175Z,98.000000
2022-12-31T14:00:21.163Z,98.000000
2022-12-31T14:05:25.030Z,98.714286
2022-12-31T14:10:27.097Z,99.000000
2022-12-31T14:15:30.386Z,99.000000
2022-12-31T14:20:33.320Z,99.000000
2022-12-31T14:25:16.228Z,99.000000
2022-12-31T14:30:20.657Z,99.000000
2022-12-31T14:35:22.862Z,99.000000
2022-12-31T14:40:25.666Z,99.000000
2022-12-31T14:45:28.392Z,99.000000
2022-12-31T14:50:30.808Z,99.000000
2022-12-31T14:55:34.155Z,99.000000
2022-12-31T15:00:16.760Z,99.000000
2022-12-31T15:05:19.667Z,99.000000
2022-12-31T15:10:23.820Z,99.000000
2022-12-31T15:15:28.067Z,99.000000
2022-12-31T15:20:31.474Z,99.000000
2022-12-31T15:25:40.380Z,99.000000
2022-12-31T15:30:16.904Z,99.000000
2022-12-31T15:35:20.749Z,99.000000
2022-12-31T15:40:24.544Z,99.000000
2022-12-31T15:45:28.359Z,99.000000
2022-12-31T15:50:30.123Z,99.000000
2022-12-31T15:55:33.200Z,99.000000
2022-12-31T16:00:16.913Z,99.000000
2022-12-31T16:05:19.763Z,99.000000
2022-12-31T16:10:23.101Z,99.000000
2022-12-31T16:15:27.264Z,99.000000
2022-12-31T16:20:28.936Z,99.000000
2022-12-31T16:25:33.333Z,99.000000
2022-12-31T16:30:16.222Z,99.000000
2022-12-31T16:35:23.632Z,99.000000
2022-12-31T16:40:23.897Z,99.000000
2022-12-31T16:45:27.674Z,99.000000
2022-12-31T16:50:31.467Z,99.000000
2022-12-31T16:55:36.082Z,99.000000
2022-12-31T17:00:20.685Z,99.000000
2022-12-31T17:05:22.987Z,99.000000
2022-12-31T17:10:27.809Z,99.000000
2022-12-31T17:15:30.866Z,99.000000
2022-12-31T17:20:32.940Z,98.133333
2022-12-31T17:25:16.435Z,96.866667
2022-12-31T17:30:20.326Z,95.666667
2022-12-31T17:35:23.914Z,95.000000
2022-12-31T17:40:50.342Z,93.733333
2022-12-31T17:45:32.345Z,91.666667
2022-12-31T17:50:48.924Z,89.133333
2022-12-31T17:55:18.938Z,89.000000
2022-12-31T18:00:21.391Z,89.000000
2022-12-31T18:05:26.029Z,89.142857
2022-12-31T18:10:31.093Z,89.000000
2022-12-31T18:15:33.905Z,89.000000
2022-12-31T18:20:16.098Z,88.800000
2022-12-31T18:25:20.712Z,88.000000
2022-12-31T18:30:22.914Z,88.000000
2022-12-31T18:35:58.042Z,88.000000
2022-12-31T18:40:28.889Z,88.000000
2022-12-31T18:45:33.748Z,87.933333
2022-12-31T18:50:16.970Z,87.000000
2022-12-31T18:55:19.720Z,86.533333
2022-12-31T19:00:23.782Z,85.857143
2022-12-31T19:05:28.942Z,85.066667
2022-12-31T19:10:30.205Z,85.266667
2022-12-31T19:15:33.988Z,85.000000
2022-12-31T19:20:16.456Z,85.000000
2022-12-31T19:25:20.421Z,84.666667
2022-12-31T19:30:22.875Z,85.000000
2022-12-31T19:35:26.778Z,85.000000
2022-12-31T19:40:29.142Z,84.400000
2022-12-31T19:45:32.817Z,84.800000
2022-12-31T19:50:37.064Z,85.000000
2022-12-31T19:55:19.956Z,85.000000
2022-12-31T20:00:23.241Z,85.071429
2022-12-31T20:05:27.325Z,86.000000
2022-12-31T20:10:31.393Z,86.000000
2022-12-31T20:15:34.137Z,86.800000
2022-12-31T20:20:16.896Z,87.000000
2022-12-31T20:25:19.809Z,86.733333
2022-12-31T20:30:23.352Z,86.000000
2022-12-31T20:35:26.636Z,85.466667
2022-12-31T20:40:29.652Z,85.733333
2022-12-31T20:45:34.963Z,85.200000
2022-12-31T20:50:19.128Z,85.600000
2022-12-31T20:55:22.680Z,85.357143
2022-12-31T21:00:26.004Z,85.000000
2022-12-31T21:05:30.000Z,85.000000
2022-12-31T21:10:33.537Z,85.800000
2022-12-31T21:15:35.385Z,86.000000
2022-12-31T21:20:18.414Z,85.800000
2022-12-31T21:25:23.292Z,85.733333
2022-12-31T21:30:27.835Z,86.000000
2022-12-31T21:35:43.303Z,86.000000
2022-12-31T21:40:35.568Z,86.000000
2022-12-31T21:45:18.752Z,86.466667
2022-12-31T21:50:20.944Z,86.466667
2022-12-31T21:55:24.308Z,85.642857
2022-12-31T22:00:43.910Z,85.000000
2022-12-31T22:05:31.462Z,84.866667
2022-12-31T22:10:37.211Z,84.333333
2022-12-31T22:15:17.511Z,84.266667
2022-12-31T22:20:28.975Z,83.333333
2022-12-31T22:25:24.295Z,83.142857
2022-12-31T22:30:28.157Z,84.000000
2022-12-31T22:35:32.440Z,84.000000
2022-12-31T22:40:16.561Z,84.000000
2022-12-31T22:45:18.746Z,84.000000
2022-12-31T22:50:22.279Z,84.357143
2022-12-31T22:55:25.644Z,84.133333
2022-12-31T23:00:29.951Z,84.000000
2022-12-31T23:05:34.152Z,83.666667
2022-12-31T23:10:17.389Z,83.400000
2022-12-31T23:15:21.547Z,84.000000
2022-12-31T23:20:25.816Z,84.071429
2022-12-31T23:25:29.859Z,85.000000
2022-12-31T23:30:33.676Z,85.000000
2022-12-31T23:35:16.909Z,85.000000
2022-12-31T23:40:22.173Z,84.866667
2022-12-31T23:45:24.982Z,84.000000
2022-12-31T23:50:26.349Z,85.200000
2022-12-31T23:55:31.120Z,86.000000
